createdAt,value
2023-02-03T00:02:03.981Z,94.05
2023-02-03T00:04:31.773Z,93.94
2023-02-03T00:06:59.426Z,94.08
2023-02-03T00:09:26.942Z,94.21
2023-02-03T00:11:54.861Z,94.18
2023-02-03T00:14:22.440Z,94.47
2023-02-03T00:16:50.193Z,94.85
2023-02-03T00:19:18.052Z,94.62
2023-02-03T00:21:46.023Z,94.86
2023-02-03T00:24:13.668Z,94.89
2023-02-03T00:26:42.983Z,94.46
2023-02-03T00:29:10.886Z,94.83
2023-02-03T00:31:38.949Z,94.34
2023-02-03T00:34:07.193Z,94.42
2023-02-03T00:36:35.970Z,94.74
2023-02-03T00:39:03.630Z,94.26
2023-02-03T00:41:31.799Z,94.54
2023-02-03T00:43:59.414Z,93.94
2023-02-03T00:46:27.895Z,94.38
2023-02-03T00:48:55.651Z,93.75
2023-02-03T00:51:23.148Z,93.65
2023-02-03T00:53:50.620Z,93.49
2023-02-03T00:56:18.433Z,93.72
2023-02-03T00:58:45.974Z,93.63
2023-02-03T01:01:13.530Z,93.89
2023-02-03T01:03:41.476Z,93.28
2023-02-03T01:06:16.182Z,92.92
2023-02-03T01:08:44.616Z,92.98
2023-02-03T01:11:15.144Z,92.98
2023-02-03T01:13:43.138Z,93.66
2023-02-03T01:16:12.214Z,93.32
2023-02-03T01:18:40.555Z,92.71
2023-02-03T01:21:11.149Z,92.47
2023-02-03T01:23:39.058Z,92.38
2023-02-03T01:26:10.310Z,92.30
2023-02-03T01:28:38.669Z,92.17
2023-02-03T01:31:10.367Z,91.96
2023-02-03T01:33:41.026Z,91.99
2023-02-03T01:36:10.044Z,91.69
2023-02-03T01:38:38.151Z,91.56
2023-02-03T01:41:08.111Z,91.37
2023-02-03T01:43:42.242Z,91.02
2023-02-03T01:46:36.097Z,91.57
2023-02-03T01:49:09.705Z,91.47
2023-02-03T01:51:39.858Z,91.20
2023-02-03T01:54:12.403Z,91.19
2023-02-03T01:56:44.656Z,91.22
2023-02-03T01:59:17.622Z,91.25
2023-02-03T02:01:46.080Z,91.00
2023-02-03T02:04:14.265Z,91.36
2023-02-03T02:06:42.195Z,91.42
2023-02-03T02:09:11.805Z,90.83
2023-02-03T02:11:41.921Z,91.52
2023-02-03T02:14:10.205Z,91.19
2023-02-03T02:16:50.379Z,90.66
2023-02-03T02:19:51.161Z,90.64
2023-02-03T02:22:28.147Z,90.50
2023-02-03T02:25:32.730Z,90.49
2023-02-03T02:28:17.089Z,90.55
2023-02-03T02:30:50.827Z,90.64
2023-02-03T02:33:34.486Z,90.07
2023-02-03T02:36:31.890Z,89.72
2023-02-03T02:39:15.497Z,89.71
2023-02-03T02:41:49.191Z,89.41
2023-02-03T02:44:33.389Z,89.02
2023-02-03T02:47:10.742Z,89.02
2023-02-03T02:49:48.261Z,89.05
2023-02-03T02:52:18.319Z,89.25
2023-02-03T02:54:51.504Z,89.77
2023-02-03T02:57:21.608Z,90.04
2023-02-03T02:59:49.707Z,90.40
2023-02-03T03:02:17.560Z,90.80
2023-02-03T03:04:48.477Z,90.57
2023-02-03T03:07:22.379Z,90.51
2023-02-03T03:10:00.705Z,90.90
2023-02-03T03:12:35.669Z,91.08
2023-02-03T03:15:17.230Z,91.62
2023-02-03T03:17:51.904Z,91.60
2023-02-03T03:20:24.634Z,91.55
2023-02-03T03:23:06.602Z,91.70
2023-02-03T03:25:41.029Z,91.80
2023-02-03T03:28:15.376Z,92.10
2023-02-03T03:30:44.007Z,92.40
2023-02-03T03:33:11.783Z,92.76
2023-02-03T03:36:03.368Z,92.70
2023-02-03T03:38:41.273Z,92.86
2023-02-03T03:41:24.519Z,93.33
2023-02-03T03:43:56.870Z,93.60
2023-02-03T03:46:30.997Z,93.11
2023-02-03T03:49:03.684Z,93.33
2023-02-03T03:51:34.523Z,93.83
2023-02-03T03:54:07.964Z,93.56
2023-02-03T03:56:43.462Z,93.48
2023-02-03T03:59:14.723Z,94.00
2023-02-03T04:01:43.118Z,93.94
2023-02-03T04:04:11.899Z,94.07
2023-02-03T04:06:39.804Z,94.41
2023-02-03T04:09:07.565Z,94.64
2023-02-03T04:11:54.312Z,94.65
2023-02-03T04:14:21.738Z,94.77
2023-02-03T04:16:49.461Z,94.98
2023-02-03T04:19:16.883Z,95.12
2023-02-03T04:21:44.327Z,95.41
2023-02-03T04:24:12.196Z,95.17
2023-02-03T04:26:39.675Z,95.55
2023-02-03T04:29:07.265Z,95.41
2023-02-03T04:31:35.074Z,95.51
2023-02-03T04:34:02.625Z,96.37
2023-02-03T04:36:30.072Z,96.42
2023-02-03T04:38:58.268Z,96.47
2023-02-03T04:41:25.743Z,96.07
2023-02-03T04:43:53.327Z,96.19
2023-02-03T04:46:21.006Z,96.25
2023-02-03T04:48:48.558Z,96.02
2023-02-03T04:51:16.098Z,95.83
2023-02-03T04:53:43.896Z,96.30
2023-02-03T04:56:11.410Z,96.50
2023-02-03T04:58:38.841Z,96.88
2023-02-03T05:01:09.122Z,96.48
2023-02-03T05:03:36.792Z,97.70
2023-02-03T05:06:05.632Z,97.57
2023-02-03T05:08:33.394Z,97.59
2023-02-03T05:11:02.232Z,97.23
2023-02-03T05:13:29.968Z,97.50
2023-02-03T05:15:57.735Z,97.16
2023-02-03T05:18:25.245Z,97.72
2023-02-03T05:20:52.652Z,98.34
2023-02-03T05:23:20.481Z,97.46
2023-02-03T05:25:47.958Z,97.56
2023-02-03T05:28:15.607Z,97.18
2023-02-03T05:30:44.239Z,97.80
2023-02-03T05:33:11.777Z,98.56
2023-02-03T05:35:39.290Z,98.58
2023-02-03T05:38:07.345Z,98.03
2023-02-03T05:40:53.289Z,97.83
2023-02-03T05:43:21.114Z,98.22
2023-02-03T05:45:48.703Z,98.67
2023-02-03T05:48:16.167Z,98.62
2023-02-03T05:50:43.990Z,97.79
2023-02-03T05:53:11.739Z,97.08
2023-02-03T05:55:39.133Z,97.12
2023-02-03T05:58:06.870Z,96.41
2023-02-03T06:00:34.677Z,96.14
2023-02-03T06:03:03.579Z,96.04
2023-02-03T06:05:33.845Z,95.90
2023-02-03T06:08:01.707Z,95.75
2023-02-03T06:10:29.639Z,95.25
2023-02-03T06:12:57.476Z,94.45
2023-02-03T06:15:25.185Z,94.82
2023-02-03T06:17:52.906Z,94.62
2023-02-03T06:20:20.795Z,94.42
2023-02-03T06:22:48.299Z,94.00
2023-02-03T06:25:16.093Z,93.56
2023-02-03T06:27:43.629Z,93.52
2023-02-03T06:30:13.510Z,93.51
2023-02-03T06:32:41.429Z,93.10
2023-02-03T06:35:09.485Z,92.67
2023-02-03T06:37:37.622Z,92.45
2023-02-03T06:40:06.206Z,92.30
2023-02-03T06:42:36.488Z,92.62
2023-02-03T06:45:04.594Z,92.54
2023-02-03T06:47:32.342Z,92.39
2023-02-03T06:49:59.879Z,92.54
2023-02-03T06:52:27.510Z,92.28
2023-02-03T06:54:55.236Z,93.88
2023-02-03T06:57:22.676Z,92.36
2023-02-03T06:59:50.204Z,92.35
2023-02-03T07:02:18.424Z,92.12
2023-02-03T07:04:45.888Z,92.15
2023-02-03T07:07:13.722Z,91.75
2023-02-03T07:09:41.744Z,92.03
2023-02-03T07:12:09.736Z,92.05
2023-02-03T07:14:39.340Z,91.79
2023-02-03T07:17:07.110Z,92.22
2023-02-03T07:19:34.534Z,91.85
2023-02-03T07:22:02.482Z,92.11
2023-02-03T07:24:30.412Z,91.95
2023-02-03T07:26:57.896Z,91.91
2023-02-03T07:29:25.370Z,92.35
2023-02-03T07:31:53.216Z,92.30
2023-02-03T07:34:21.590Z,91.70
2023-02-03T07:36:49.080Z,92.03
2023-02-03T07:39:16.759Z,92.22
2023-02-03T07:41:44.538Z,93.05
2023-02-03T07:44:12.093Z,92.42
2023-02-03T07:46:44.838Z,92.00
2023-02-03T07:49:12.936Z,92.45
2023-02-03T07:51:41.197Z,90.85
2023-02-03T07:54:08.617Z,91.33
2023-02-03T07:56:36.040Z,90.54
2023-02-03T07:59:03.891Z,90.73
2023-02-03T08:01:34.183Z,89.31
2023-02-03T08:04:05.507Z,88.73
2023-02-03T08:06:33.358Z,88.58
2023-02-03T08:09:00.921Z,88.67
2023-02-03T08:11:28.690Z,87.76
2023-02-03T08:13:56.243Z,87.35
2023-02-03T08:16:23.836Z,87.17
2023-02-03T08:18:51.713Z,87.07
2023-02-03T08:21:19.230Z,86.73
2023-02-03T08:23:46.702Z,86.19
2023-02-03T08:26:14.486Z,86.14
2023-02-03T08:28:42.066Z,85.59
2023-02-03T08:31:13.031Z,84.92
2023-02-03T08:33:46.737Z,84.67
2023-02-03T08:36:14.172Z,84.51
2023-02-03T08:38:42.039Z,84.98
2023-02-03T08:41:12.279Z,83.93
2023-02-03T08:43:39.859Z,83.80
2023-02-03T08:46:09.454Z,84.75
2023-02-03T08:48:37.158Z,82.23
2023-02-03T08:51:15.667Z,82.00
2023-02-03T08:53:43.555Z,81.41
2023-02-03T08:56:12.294Z,82.48
2023-02-03T08:58:39.828Z,82.07
2023-02-03T09:01:18.396Z,81.55
2023-02-03T09:03:46.619Z,80.88
2023-02-03T09:06:16.647Z,81.36
2023-02-03T09:08:46.099Z,79.67
2023-02-03T09:11:16.108Z,80.07
2023-02-03T09:13:46.866Z,79.56
2023-02-03T09:16:22.438Z,79.09
2023-02-03T09:18:51.731Z,78.94
2023-02-03T09:21:32.162Z,78.21
2023-02-03T09:24:04.245Z,78.93
2023-02-03T09:26:32.025Z,78.40
2023-02-03T09:28:59.528Z,77.32
2023-02-03T09:31:27.064Z,78.81
2023-02-03T09:33:54.982Z,78.19
2023-02-03T09:36:22.435Z,78.60
2023-02-03T09:38:49.879Z,78.38
2023-02-03T09:41:35.674Z,76.72
2023-02-03T09:44:27.533Z,76.76
2023-02-03T09:47:02.717Z,76.34
2023-02-03T09:49:53.920Z,76.58
2023-02-03T09:52:25.080Z,76.11
2023-02-03T09:55:14.327Z,76.13
2023-02-03T09:57:56.908Z,75.83
2023-02-03T10:00:30.435Z,74.44
2023-02-03T10:03:07.509Z,74.17
2023-02-03T10:05:53.596Z,74.30
2023-02-03T10:08:55.417Z,73.47
2023-02-03T10:11:46.161Z,75.41
2023-02-03T10:14:23.595Z,73.88
2023-02-03T10:16:59.918Z,74.37
2023-02-03T10:19:42.083Z,72.11
2023-02-03T10:22:18.570Z,72.25
2023-02-03T10:24:53.826Z,70.43
2023-02-03T10:27:23.901Z,71.50
2023-02-03T10:30:18.272Z,69.68
2023-02-03T10:32:45.849Z,68.12
2023-02-03T10:35:14.293Z,68.73
2023-02-03T10:37:49.902Z,68.32
2023-02-03T10:40:18.207Z,69.83
2023-02-03T10:43:06.782Z,70.26
2023-02-03T10:45:38.410Z,69.53
2023-02-03T10:48:13.969Z,68.18
2023-02-03T10:50:49.038Z,69.46
2023-02-03T10:53:36.550Z,69.85
2023-02-03T10:56:14.429Z,69.41
2023-02-03T10:58:56.645Z,67.96
2023-02-03T11:01:48.671Z,69.46
2023-02-03T11:04:31.765Z,68.71
2023-02-03T11:07:06.238Z,68.68
2023-02-03T11:09:39.160Z,70.29
2023-02-03T11:12:12.129Z,69.71
2023-02-03T11:14:45.640Z,69.54
2023-02-03T11:17:22.896Z,70.11
2023-02-03T11:19:52.356Z,73.69
2023-02-03T11:22:32.751Z,72.32
2023-02-03T11:25:03.557Z,72.57
2023-02-03T11:27:33.228Z,72.88
2023-02-03T11:30:11.141Z,73.76
2023-02-03T11:32:41.754Z,74.59
2023-02-03T11:35:27.062Z,75.60
2023-02-03T11:37:58.345Z,75.05
2023-02-03T11:40:29.368Z,75.14
2023-02-03T11:42:57.511Z,74.55
2023-02-03T11:45:24.869Z,73.35
2023-02-03T11:47:58.216Z,73.39
2023-02-03T11:50:50.954Z,72.60
2023-02-03T11:53:31.041Z,73.37
2023-02-03T11:56:04.728Z,75.31
2023-02-03T11:58:41.407Z,74.74
2023-02-03T12:01:20.965Z,76.69
2023-02-03T12:04:00.750Z,75.58
2023-02-03T12:06:56.474Z,74.04
2023-02-03T12:09:40.368Z,73.36
2023-02-03T12:12:33.888Z,72.70
2023-02-03T12:15:25.054Z,73.32
2023-02-03T12:18:16.640Z,72.87
2023-02-03T12:20:47.148Z,73.15
2023-02-03T12:23:36.062Z,73.13
2023-02-03T12:26:33.134Z,72.98
2023-02-03T12:29:13.300Z,72.11
2023-02-03T12:32:07.507Z,73.63
2023-02-03T12:34:47.463Z,73.75
2023-02-03T12:37:21.786Z,74.94
2023-02-03T12:40:03.777Z,74.65
2023-02-03T12:42:40.762Z,73.93
2023-02-03T12:45:08.553Z,76.30
2023-02-03T12:47:40.717Z,74.08
2023-02-03T12:50:22.883Z,73.87
2023-02-03T12:53:00.741Z,73.85
2023-02-03T12:55:33.511Z,74.67
2023-02-03T12:58:26.642Z,74.90
2023-02-03T13:01:12.964Z,74.46
2023-02-03T13:04:06.753Z,74.70
2023-02-03T13:06:46.476Z,74.83
2023-02-03T13:09:39.542Z,76.11
2023-02-03T13:12:31.616Z,75.32
2023-02-03T13:15:25.108Z,75.58
2023-02-03T13:18:01.712Z,76.72
2023-02-03T13:20:35.585Z,77.97
2023-02-03T13:23:11.158Z,77.55
2023-02-03T13:25:47.178Z,78.20
2023-02-03T13:28:45.845Z,78.93
2023-02-03T13:31:32.412Z,78.80
2023-02-03T13:34:18.852Z,79.20
2023-02-03T13:37:05.235Z,80.33
2023-02-03T13:39:51.475Z,80.92
2023-02-03T13:42:31.762Z,81.33
2023-02-03T13:45:25.360Z,81.90
2023-02-03T13:47:57.411Z,82.92
2023-02-03T13:50:31.043Z,82.37
2023-02-03T13:53:19.511Z,82.78
2023-02-03T13:56:07.979Z,83.06
2023-02-03T13:58:39.438Z,84.00
2023-02-03T14:01:30.132Z,84.50
2023-02-03T14:03:58.219Z,84.01
2023-02-03T14:06:37.835Z,84.58
2023-02-03T14:09:30.521Z,84.99
2023-02-03T14:12:16.446Z,85.92
2023-02-03T14:14:58.063Z,85.57
2023-02-03T14:17:34.331Z,85.84
2023-02-03T14:20:28.171Z,86.31
2023-02-03T14:23:07.299Z,86.30
2023-02-03T14:25:40.384Z,86.36
2023-02-03T14:28:12.263Z,86.77
2023-02-03T14:31:01.819Z,85.98
2023-02-03T14:34:12.982Z,85.79
2023-02-03T14:36:46.305Z,85.73
2023-02-03T14:39:22.612Z,85.26
2023-02-03T14:42:01.912Z,85.04
2023-02-03T14:44:44.303Z,85.02
2023-02-03T14:47:22.155Z,85.06
2023-02-03T14:49:55.382Z,84.91
2023-02-03T14:52:28.688Z,85.31
2023-02-03T14:55:01.970Z,85.17
2023-02-03T14:57:39.753Z,85.12
2023-02-03T15:00:31.411Z,85.77
2023-02-03T15:03:10.967Z,85.78
2023-02-03T15:05:44.470Z,86.09
2023-02-03T15:08:44.156Z,87.23
2023-02-03T15:11:32.855Z,87.96
2023-02-03T15:14:25.892Z,88.75
2023-02-03T15:17:13.008Z,89.30
2023-02-03T15:19:42.755Z,90.66
2023-02-03T15:22:20.574Z,91.47
2023-02-03T15:24:50.985Z,93.04
2023-02-03T15:27:36.383Z,94.31
2023-02-03T15:30:19.554Z,95.38
2023-02-03T15:33:02.897Z,95.86
2023-02-03T15:35:34.041Z,95.66
2023-02-03T15:38:06.181Z,94.80
2023-02-03T15:40:41.869Z,95.23
2023-02-03T15:43:38.094Z,95.13
2023-02-03T15:46:19.256Z,95.80
2023-02-03T15:48:55.287Z,96.92
2023-02-03T15:51:47.358Z,98.17
2023-02-03T15:54:19.142Z,98.60
2023-02-03T15:56:56.972Z,98.04
2023-02-03T15:59:35.542Z,97.45
2023-02-03T16:02:40.101Z,98.86
2023-02-03T16:05:28.423Z,99.14
2023-02-03T16:07:56.287Z,100.00
2023-02-03T16:10:29.749Z,98.91
2023-02-03T16:13:20.053Z,99.26
2023-02-03T16:16:37.107Z,99.18
2023-02-03T16:19:14.186Z,99.22
2023-02-03T16:21:47.987Z,99.42
2023-02-03T16:24:33.551Z,99.28
2023-02-03T16:27:19.845Z,99.79
2023-02-03T16:30:06.457Z,99.66
2023-02-03T16:32:52.950Z,100.00
2023-02-03T16:35:39.547Z,100.00
2023-02-03T16:38:32.575Z,100.00
2023-02-03T16:41:18.948Z,100.00
2023-02-03T16:44:05.477Z,100.00
2023-02-03T16:46:51.454Z,100.00
2023-02-03T16:49:38.111Z,100.00
2023-02-03T16:52:06.497Z,100.00
2023-02-03T16:54:34.247Z,100.00
2023-02-03T16:57:01.725Z,100.00
2023-02-03T16:59:29.175Z,100.00
2023-02-03T17:01:57.221Z,100.00
2023-02-03T17:04:24.691Z,100.00
2023-02-03T17:06:52.226Z,100.00
2023-02-03T17:09:25.079Z,100.00
2023-02-03T17:11:53.034Z,100.00
2023-02-03T17:14:21.909Z,100.00
2023-02-03T17:16:49.460Z,100.00
2023-02-03T17:19:17.147Z,100.00
2023-02-03T17:21:45.389Z,100.00
2023-02-03T17:24:12.963Z,100.00
2023-02-03T17:26:40.690Z,100.00
2023-02-03T17:29:10.422Z,100.00
2023-02-03T17:53:38.824Z,100.00
2023-02-03T17:56:12.005Z,100.00
2023-02-03T17:58:40.427Z,100.00
2023-02-03T18:01:19.495Z,100.00
2023-02-03T18:03:49.573Z,100.00
2023-02-03T18:06:19.906Z,100.00
2023-02-03T18:08:50.096Z,100.00
2023-02-03T18:11:19.272Z,100.00
2023-02-03T18:13:48.962Z,100.00
2023-02-03T18:16:26.149Z,100.00
2023-02-03T18:18:54.662Z,100.00
2023-02-03T18:21:25.001Z,100.00
2023-02-03T18:23:58.465Z,100.00
2023-02-03T18:26:28.885Z,100.00
2023-02-03T18:28:56.722Z,100.00
2023-02-03T18:31:25.386Z,100.00
2023-02-03T18:33:53.883Z,100.00
2023-02-03T18:36:21.555Z,100.00
2023-02-03T18:38:49.306Z,100.00
2023-02-03T18:41:19.917Z,100.00
2023-02-03T18:43:51.357Z,100.00
2023-02-03T18:46:21.263Z,100.00
2023-02-03T18:48:49.562Z,100.00
2023-02-03T18:51:19.532Z,100.00
2023-02-03T18:53:49.241Z,100.00
2023-02-03T18:56:20.676Z,100.00
2023-02-03T18:58:49.328Z,100.00
2023-02-03T19:01:21.771Z,100.00
2023-02-03T19:03:50.216Z,100.00
2023-02-03T19:06:18.538Z,100.00
2023-02-03T19:08:46.980Z,100.00
2023-02-03T19:11:15.286Z,100.00
2023-02-03T19:13:43.923Z,100.00
2023-02-03T19:16:14.264Z,100.00
2023-02-03T19:18:43.819Z,100.00
2023-02-03T19:21:12.785Z,100.00
2023-02-03T19:23:42.026Z,100.00
2023-02-03T19:26:10.592Z,100.00
2023-02-03T19:28:39.577Z,100.00
2023-02-03T19:31:15.396Z,100.00
2023-02-03T19:33:43.465Z,100.00
2023-02-03T19:36:12.074Z,100.00
2023-02-03T19:38:39.869Z,100.00
2023-02-03T19:41:08.791Z,100.00
2023-02-03T19:43:36.715Z,100.00
2023-02-03T19:46:04.612Z,100.00
2023-02-03T19:48:32.806Z,100.00
2023-02-03T19:51:00.830Z,100.00
2023-02-03T19:53:28.495Z,100.00
2023-02-03T19:55:57.256Z,100.00
2023-02-03T19:58:25.241Z,100.00
2023-02-03T20:00:53.532Z,100.00
2023-02-03T20:03:22.812Z,100.00
2023-02-03T20:05:53.040Z,100.00
2023-02-03T20:08:21.177Z,100.00
2023-02-03T20:10:49.457Z,100.00
2023-02-03T20:13:17.311Z,100.00
2023-02-03T20:15:47.520Z,100.00
2023-02-03T20:18:15.558Z,100.00
2023-02-03T20:20:43.242Z,100.00
2023-02-03T20:23:11.334Z,100.00
2023-02-03T20:25:39.144Z,100.00
2023-02-03T20:28:07.160Z,100.00
2023-02-03T20:30:35.656Z,100.00
2023-02-03T20:33:04.777Z,100.00
2023-02-03T20:35:32.467Z,100.00
2023-02-03T20:38:00.846Z,100.00
2023-02-03T20:40:29.795Z,100.00
2023-02-03T20:43:00.097Z,100.00
2023-02-03T20:45:28.388Z,100.00
2023-02-03T20:47:56.558Z,100.00
2023-02-03T20:50:31.554Z,100.00
2023-02-03T20:53:02.509Z,100.00
2023-02-03T20:55:30.226Z,100.00
2023-02-03T20:57:57.823Z,100.00
2023-02-03T21:00:27.866Z,100.00
2023-02-03T21:03:14.127Z,100.00
2023-02-03T21:05:45.393Z,100.00
2023-02-03T21:08:19.036Z,100.00
2023-02-03T21:10:48.302Z,100.00
2023-02-03T21:13:27.496Z,100.00
2023-02-03T21:16:00.007Z,100.00
2023-02-03T21:18:32.202Z,100.00
2023-02-03T21:21:01.332Z,100.00
2023-02-03T21:23:38.329Z,100.00
2023-02-03T21:26:18.912Z,100.00
2023-02-03T21:28:48.836Z,100.00
2023-02-03T21:31:24.095Z,100.00
2023-02-03T21:33:54.263Z,100.00
2023-02-03T21:36:28.239Z,100.00
2023-02-03T21:38:59.778Z,100.00
2023-02-03T21:41:32.894Z,100.00
2023-02-03T21:44:00.915Z,100.00
2023-02-03T21:46:32.633Z,100.00
2023-02-03T21:49:04.352Z,99.78
2023-02-03T21:51:38.667Z,99.94
2023-02-03T21:54:30.346Z,97.95
2023-02-03T21:56:58.949Z,97.26
2023-02-03T21:59:30.152Z,96.33
2023-02-03T22:01:58.647Z,95.69
2023-02-03T22:04:28.607Z,95.34
2023-02-03T22:06:56.153Z,94.45
2023-02-03T22:09:25.881Z,92.83
2023-02-03T22:11:54.094Z,91.12
2023-02-03T22:14:21.554Z,91.13
2023-02-03T22:16:49.118Z,90.31
2023-02-03T22:19:17.667Z,89.98
2023-02-03T22:21:47.722Z,88.78
2023-02-03T22:24:15.207Z,89.57
2023-02-03T22:26:42.987Z,89.36
2023-02-03T22:29:10.540Z,89.45
2023-02-03T22:31:38.124Z,88.57
2023-02-03T22:34:05.877Z,89.86
2023-02-03T22:36:33.364Z,88.67
2023-02-03T22:39:00.810Z,88.89
2023-02-03T22:41:28.544Z,89.67
2023-02-03T22:43:56.351Z,89.98
2023-02-03T22:46:23.814Z,90.63
2023-02-03T22:48:51.733Z,89.89
2023-02-03T22:51:19.122Z,90.60
2023-02-03T22:53:46.616Z,90.45
2023-02-03T22:56:14.379Z,90.67
2023-02-03T22:58:42.149Z,91.40
2023-02-03T23:01:09.697Z,91.65
2023-02-03T23:03:37.567Z,90.81
2023-02-03T23:06:05.154Z,91.26
2023-02-03T23:08:33.104Z,91.09
2023-02-03T23:11:00.862Z,91.45
2023-02-03T23:13:28.838Z,90.44
2023-02-03T23:15:56.340Z,90.94
2023-02-03T23:18:24.203Z,91.37
2023-02-03T23:20:51.861Z,90.87
2023-02-03T23:23:19.296Z,91.51
2023-02-03T23:25:47.092Z,91.13
2023-02-03T23:28:14.615Z,91.26
2023-02-03T23:30:42.522Z,90.99
2023-02-03T23:33:10.247Z,90.58
2023-02-03T23:35:46.739Z,91.28
2023-02-03T23:38:15.778Z,91.28
2023-02-03T23:40:43.673Z,90.40
2023-02-03T23:43:11.086Z,90.57
2023-02-03T23:45:38.979Z,91.12
2023-02-03T23:48:06.882Z,91.60
2023-02-03T23:50:34.334Z,91.04
2023-02-03T23:53:02.429Z,91.37
2023-02-03T23:55:31.356Z,91.61
2023-02-03T23:57:58.837Z,91.48
